Time;durP1;ratioP1;P1;durP2;ratioP2;P2;SDS_P1;SDS_P2;PMS_P1;PMS_P2;Temp;Humidity;BMP_temperature;BMP_pressure;BME280_temperature;BME280_humidity;BME280_pressure;Samples;Min_cycle;Max_cycle;Signal;HPM_P1;HPM_P2
2023/04/15 00:00:28;;;;;;;49.55;9.88;;;12.40;73.50;;;;;;5023818;28;20030;-57
2023/04/15 00:02:54;;;;;;;50.10;9.88;;;12.40;73.50;;;;;;5023706;28;20030;-58
2023/04/15 00:05:19;;;;;;;52.85;10.18;;;12.40;73.60;;;;;;5023931;28;20041;-58
2023/04/15 00:07:46;;;;;;;40.72;9.82;;;12.30;73.50;;;;;;5023701;28;20021;-58
2023/04/15 00:10:11;;;;;;;42.40;9.30;;;12.30;74.10;;;;;;5023676;28;20026;-58
2023/04/15 00:12:37;;;;;;;46.92;9.35;;;12.30;73.50;;;;;;5023779;28;20033;-58
2023/04/15 00:15:03;;;;;;;51.22;9.95;;;12.30;73.40;;;;;;5025055;28;20026;-58
2023/04/15 00:17:29;;;;;;;48.03;9.15;;;12.30;73.60;;;;;;5023570;28;20022;-57
2023/04/15 00:19:54;;;;;;;51.42;9.05;;;12.30;73.70;;;;;;5023301;28;20030;-58
2023/04/15 00:22:20;;;;;;;58.20;10.13;;;12.20;73.70;;;;;;5025028;28;20501;-58
2023/04/15 00:24:45;;;;;;;51.22;9.30;;;12.20;73.90;;;;;;5007095;28;20117;-58
2023/04/15 00:27:11;;;;;;;40.05;7.90;;;12.20;73.90;;;;;;5023633;28;20478;-58
2023/04/15 00:29:37;;;;;;;44.90;8.75;;;12.10;73.90;;;;;;5024017;28;20042;-58
2023/04/15 00:32:02;;;;;;;45.33;8.95;;;12.10;74.00;;;;;;5023680;28;20034;-58
2023/04/15 00:34:28;;;;;;;34.60;8.40;;;12.10;74.10;;;;;;5027409;28;20034;-58
2023/04/15 00:36:53;;;;;;;44.67;8.85;;;12.10;73.90;;;;;;5027680;28;20034;-58
2023/04/15 00:39:19;;;;;;;48.00;8.60;;;12.00;73.90;;;;;;5027426;28;20118;-57
2023/04/15 00:41:45;;;;;;;42.75;8.75;;;12.00;74.10;;;;;;5028857;28;20037;-58
2023/04/15 00:44:10;;;;;;;42.60;8.73;;;12.00;74.10;;;;;;5043872;28;20030;-58
2023/04/15 00:46:37;;;;;;;51.50;7.40;;;12.00;74.20;;;;;;5028687;28;20037;-58
2023/04/15 00:49:06;;;;;;;47.67;8.27;;;11.90;74.20;;;;;;5027346;28;20470;-58
2023/04/15 00:51:34;;;;;;;34.20;7.80;;;11.90;74.20;;;;;;5010882;28;20045;-58
2023/04/15 00:54:01;;;;;;;33.88;7.10;;;11.90;74.30;;;;;;5027152;28;20030;-58
2023/04/15 00:56:26;;;;;;;43.03;8.05;;;11.90;74.30;;;;;;5027107;28;20088;-58
2023/04/15 00:58:52;;;;;;;32.38;6.95;;;11.80;74.30;;;;;;5027332;28;20022;-58
2023/04/15 01:01:20;;;;;;;33.55;7.18;;;11.80;74.20;;;;;;5027034;28;20038;-58
2023/04/15 01:03:46;;;;;;;35.67;7.22;;;11.80;74.10;;;;;;5026939;28;20026;-58
2023/04/15 01:06:12;;;;;;;33.15;6.68;;;11.80;74.30;;;;;;5028354;28;20038;-57
2023/04/15 01:08:37;;;;;;;37.90;7.53;;;11.80;74.40;;;;;;5026999;28;20038;-58
2023/04/15 01:11:03;;;;;;;31.52;7.80;;;11.70;74.40;;;;;;5026963;28;20124;-58
2023/04/15 01:13:28;;;;;;;27.50;6.82;;;11.70;74.40;;;;;;5026663;28;20095;-58
2023/04/15 01:15:55;;;;;;;36.45;7.00;;;11.70;74.40;;;;;;5026628;28;20091;-57
2023/04/15 01:18:21;;;;;;;33.97;7.65;;;11.70;74.30;;;;;;5026826;28;20026;-58
2023/04/15 01:20:46;;;;;;;35.00;7.00;;;11.70;74.40;;;;;;5026696;28;20036;-57
2023/04/15 01:23:12;;;;;;;31.70;6.55;;;11.70;74.50;;;;;;5028025;28;20490;-58
2023/04/15 01:25:37;;;;;;;31.38;5.55;;;11.70;74.60;;;;;;5026447;28;20030;-58
2023/04/15 01:28:03;;;;;;;26.23;5.88;;;11.70;74.50;;;;;;5026563;28;20085;-57
2023/04/15 01:30:33;;;;;;;24.73;6.38;;;11.70;74.50;;;;;;5027736;28;20155;-57
2023/04/15 01:32:59;;;;;;;33.42;5.85;;;11.60;74.40;;;;;;5026327;28;20097;-57
2023/04/15 01:35:24;;;;;;;26.58;5.68;;;11.60;74.70;;;;;;5026534;28;20026;-57
2023/04/15 01:37:50;;;;;;;25.20;5.55;;;11.60;74.70;;;;;;5026503;28;20117;-58
2023/04/15 01:40:15;;;;;;;23.80;5.45;;;11.60;74.80;;;;;;5026171;28;20092;-57
2023/04/15 01:42:41;;;;;;;34.70;6.00;;;11.50;74.70;;;;;;5027815;28;20082;-58
2023/04/15 01:45:07;;;;;;;22.05;4.97;;;11.50;74.80;;;;;;5026387;28;20030;-58
2023/04/15 01:47:33;;;;;;;22.65;5.15;;;11.50;74.70;;;;;;5009917;28;20030;-58
2023/04/15 01:49:58;;;;;;;23.25;5.68;;;11.50;74.60;;;;;;5027254;28;20037;-57
2023/04/15 01:52:24;;;;;;;25.55;6.10;;;11.50;74.70;;;;;;5027798;28;20037;-58
2023/04/15 01:54:50;;;;;;;33.58;5.15;;;11.50;74.70;;;;;;5027924;28;20037;-57
2023/04/15 01:57:16;;;;;;;21.85;5.70;;;11.50;75.00;;;;;;5027471;28;20018;-58
2023/04/15 01:59:42;;;;;;;14.05;4.40;;;11.50;74.90;;;;;;5027224;28;20026;-57
2023/04/15 02:02:07;;;;;;;20.17;5.40;;;11.50;75.00;;;;;;5026945;28;20093;-58
2023/04/15 02:04:33;;;;;;;18.60;6.30;;;11.50;75.00;;;;;;5025983;28;20045;-58
2023/04/15 02:06:58;;;;;;;23.17;7.60;;;11.40;74.90;;;;;;5027159;28;20034;-57
2023/04/15 02:09:24;;;;;;;22.02;8.15;;;11.40;75.50;;;;;;5025937;28;20030;-57
2023/04/15 02:11:51;;;;;;;25.23;7.25;;;11.40;74.90;;;;;;5027060;28;20026;-58
2023/04/15 02:14:17;;;;;;;23.90;8.13;;;11.40;75.10;;;;;;5025706;28;20036;-58
2023/04/15 02:16:43;;;;;;;23.88;7.55;;;11.40;75.20;;;;;;5027108;28;20034;-57
2023/04/15 02:19:08;;;;;;;29.15;6.88;;;11.40;75.00;;;;;;5025606;28;20072;-58
2023/04/15 02:21:34;;;;;;;23.80;6.03;;;11.40;75.10;;;;;;5027151;28;20053;-57
2023/04/15 02:24:01;;;;;;;19.08;6.20;;;11.30;75.10;;;;;;5025308;28;20056;-57
2023/04/15 02:26:26;;;;;;;23.35;6.45;;;11.40;75.20;;;;;;5025691;28;20050;-58
2023/04/15 02:28:52;;;;;;;17.85;6.40;;;11.30;75.20;;;;;;5025648;28;20029;-57
2023/04/15 02:31:18;;;;;;;24.02;5.78;;;11.30;75.20;;;;;;5025358;28;20605;-58
2023/04/15 02:33:43;;;;;;;20.02;6.25;;;11.30;75.20;;;;;;5025488;28;20053;-58
2023/04/15 02:36:11;;;;;;;16.33;6.03;;;11.30;75.20;;;;;;5025172;28;20445;-58
2023/04/15 02:38:37;;;;;;;19.25;6.03;;;11.30;75.20;;;;;;5026762;28;20030;-58
2023/04/15 02:41:03;;;;;;;17.90;5.60;;;11.30;75.10;;;;;;5025261;28;20037;-57
2023/04/15 02:43:29;;;;;;;16.30;5.18;;;11.30;75.10;;;;;;5025445;28;20042;-58
2023/04/15 02:45:55;;;;;;;20.90;5.45;;;11.30;75.20;;;;;;5025270;28;20432;-57
2023/04/15 02:48:20;;;;;;;13.27;4.88;;;11.30;75.40;;;;;;5026512;28;20022;-58
2023/04/15 02:50:46;;;;;;;18.80;5.38;;;11.20;75.40;;;;;;5026202;28;20041;-58
2023/04/15 02:53:13;;;;;;;21.80;5.25;;;11.20;76.00;;;;;;5024991;28;20025;-58
2023/04/15 02:55:39;;;;;;;23.23;5.32;;;11.20;75.40;;;;;;5024254;28;20494;-58
2023/04/15 02:58:05;;;;;;;13.68;4.90;;;11.20;75.40;;;;;;5024531;28;20026;-58
2023/04/15 03:00:31;;;;;;;15.43;5.00;;;11.20;75.50;;;;;;5024870;28;20102;-58
2023/04/15 03:03:06;;;;;;;18.38;5.03;;;11.20;75.50;;;;;;5024699;28;20029;-58
2023/04/15 03:05:31;;;;;;;11.50;4.60;;;11.10;75.40;;;;;;5024802;28;20105;-58
2023/04/15 03:07:57;;;;;;;17.95;4.78;;;11.10;75.60;;;;;;5024747;28;20267;-58
2023/04/15 03:10:23;;;;;;;13.93;4.80;;;11.10;75.80;;;;;;5008149;28;20041;-57
2023/04/15 03:12:48;;;;;;;12.43;4.50;;;11.20;75.60;;;;;;5024841;28;20033;-57
2023/04/15 03:15:14;;;;;;;14.75;4.30;;;11.20;75.60;;;;;;5024456;28;20100;-58
2023/04/15 03:17:39;;;;;;;11.73;4.38;;;11.20;75.60;;;;;;5025852;28;20101;-57
2023/04/15 03:20:06;;;;;;;12.05;3.97;;;11.20;76.30;;;;;;5024508;28;20033;-57
2023/04/15 03:22:31;;;;;;;20.25;4.65;;;11.10;75.50;;;;;;5024653;28;20037;-57
2023/04/15 03:24:57;;;;;;;12.63;4.55;;;11.10;75.70;;;;;;5026372;28;20033;-57
2023/04/15 03:27:23;;;;;;;14.02;4.93;;;11.10;75.60;;;;;;5024738;28;20036;-57
2023/04/15 03:29:49;;;;;;;11.27;4.50;;;11.10;75.70;;;;;;5024197;28;20060;-58
2023/04/15 03:32:14;;;;;;;10.32;4.40;;;11.10;76.50;;;;;;5025691;28;20041;-58
2023/04/15 03:34:41;;;;;;;13.13;4.13;;;11.10;75.80;;;;;;5025436;28;20537;-57
2023/04/15 03:37:06;;;;;;;15.38;4.68;;;11.10;75.70;;;;;;5025676;28;20084;-58
2023/04/15 03:39:32;;;;;;;15.73;3.83;;;11.10;75.80;;;;;;5024295;28;20022;-57
2023/04/15 03:41:58;;;;;;;13.57;4.55;;;11.10;76.00;;;;;;5025350;28;20045;-58
2023/04/15 03:44:25;;;;;;;13.75;4.28;;;11.00;75.80;;;;;;5025502;28;20077;-58
2023/04/15 03:46:50;;;;;;;8.98;3.60;;;11.00;75.90;;;;;;5024526;28;20030;-58
2023/04/15 03:49:16;;;;;;;14.93;4.15;;;11.10;76.10;;;;;;5025214;28;20077;-58
2023/04/15 03:51:42;;;;;;;12.50;4.38;;;11.00;76.00;;;;;;5023854;28;20118;-57
2023/04/15 03:54:07;;;;;;;12.23;4.13;;;11.00;76.00;;;;;;5025168;28;20041;-58
2023/04/15 03:56:33;;;;;;;13.00;4.05;;;11.00;76.10;;;;;;5024543;28;20072;-58
2023/04/15 03:58:58;;;;;;;11.32;4.10;;;11.00;76.10;;;;;;5025267;28;20022;-57
2023/04/15 04:01:24;;;;;;;13.98;3.72;;;11.00;76.10;;;;;;5025149;28;20092;-57
2023/04/15 04:03:49;;;;;;;12.95;3.92;;;11.00;76.10;;;;;;5024042;28;20026;-58
2023/04/15 04:06:15;;;;;;;12.18;3.88;;;11.00;76.10;;;;;;5025961;28;20042;-58
2023/04/15 04:08:41;;;;;;;9.05;3.08;;;11.00;76.10;;;;;;5022967;28;20367;-58
2023/04/15 04:11:06;;;;;;;10.55;3.55;;;11.00;76.10;;;;;;5023716;28;20131;-58
2023/04/15 04:13:32;;;;;;;7.90;3.67;;;11.00;76.10;;;;;;5023788;28;20512;-57
2023/04/15 04:15:58;;;;;;;12.68;3.95;;;11.00;76.10;;;;;;5024988;28;20038;-58
2023/04/15 04:18:23;;;;;;;13.20;4.07;;;11.00;76.10;;;;;;5023649;28;20025;-58
2023/04/15 04:20:49;;;;;;;10.55;3.47;;;11.00;76.10;;;;;;5023584;28;20026;-58
2023/04/15 04:23:14;;;;;;;11.70;3.65;;;11.00;76.20;;;;;;5023518;28;20536;-57
2023/04/15 04:25:40;;;;;;;9.73;3.47;;;11.00;76.10;;;;;;5007222;28;20108;-58
2023/04/15 04:28:06;;;;;;;10.70;3.60;;;10.90;76.30;;;;;;5023503;28;20026;-58
2023/04/15 04:30:31;;;;;;;12.63;3.80;;;11.00;76.10;;;;;;5023590;28;20032;-57
2023/04/15 04:32:57;;;;;;;9.15;3.58;;;10.90;76.00;;;;;;5023455;28;20092;-58
2023/04/15 04:35:22;;;;;;;6.28;3.10;;;10.90;76.30;;;;;;5023496;28;20076;-57
2023/04/15 04:37:48;;;;;;;9.35;3.03;;;10.90;76.20;;;;;;5024673;28;20022;-57
2023/04/15 04:40:14;;;;;;;10.10;3.38;;;10.90;76.10;;;;;;5024584;28;20030;-58
2023/04/15 04:42:39;;;;;;;13.95;3.40;;;10.90;76.20;;;;;;5023415;28;20022;-58
2023/04/15 04:45:06;;;;;;;7.18;3.35;;;10.90;76.30;;;;;;5023283;28;20032;-57
2023/04/15 04:47:31;;;;;;;9.70;3.28;;;10.90;76.40;;;;;;5023074;28;20454;-57
2023/04/15 04:49:57;;;;;;;8.40;3.10;;;10.90;77.20;;;;;;5023232;28;20036;-58
2023/04/15 04:52:23;;;;;;;8.88;3.63;;;10.90;76.60;;;;;;5023283;28;20037;-58
2023/04/15 04:54:48;;;;;;;7.82;3.47;;;10.90;76.70;;;;;;5024642;28;20446;-58
2023/04/15 04:57:14;;;;;;;7.32;3.25;;;10.90;77.30;;;;;;5024704;28;20061;-58
2023/04/15 04:59:40;;;;;;;7.28;3.63;;;10.90;76.70;;;;;;5023238;28;20037;-58
2023/04/15 05:02:06;;;;;;;7.32;3.65;;;10.90;76.80;;;;;;5023204;28;20022;-58
2023/04/15 05:04:31;;;;;;;8.00;4.03;;;10.90;76.80;;;;;;5023452;28;20040;-57
2023/04/15 05:06:58;;;;;;;7.82;3.55;;;10.90;76.90;;;;;;5024761;28;20038;-58
2023/04/15 05:09:24;;;;;;;10.48;3.85;;;10.90;77.60;;;;;;5023115;28;20072;-57
2023/04/15 05:11:49;;;;;;;8.65;3.28;;;10.90;76.90;;;;;;5023099;28;20034;-58
2023/04/15 05:14:15;;;;;;;8.38;4.03;;;10.90;77.00;;;;;;5024239;28;20095;-57
2023/04/15 05:16:41;;;;;;;31.20;5.95;;;10.90;77.00;;;;;;5024377;28;20030;-57
2023/04/15 05:19:06;;;;;;;37.67;6.55;;;10.90;77.00;;;;;;5023456;28;20032;-57
2023/04/15 05:21:32;;;;;;;35.35;7.30;;;10.90;77.70;;;;;;5026755;28;20030;-58
2023/04/15 05:23:57;;;;;;;23.98;6.35;;;10.90;77.10;;;;;;5026869;28;20045;-58
2023/04/15 05:26:23;;;;;;;34.15;6.57;;;10.90;77.00;;;;;;5026501;28;20030;-58
2023/04/15 05:28:49;;;;;;;32.58;6.55;;;10.90;77.10;;;;;;5026592;28;20037;-58
2023/04/15 05:31:15;;;;;;;24.30;5.72;;;11.00;77.20;;;;;;5026501;28;20033;-58
2023/04/15 05:33:40;;;;;;;38.55;7.20;;;10.90;77.20;;;;;;5010102;28;20033;-58
2023/04/15 05:36:06;;;;;;;35.33;6.85;;;11.00;77.30;;;;;;5026554;28;20069;-58
2023/04/15 05:38:32;;;;;;;26.63;6.50;;;11.00;77.30;;;;;;5026382;28;20034;-58
2023/04/15 05:40:57;;;;;;;29.05;6.35;;;11.00;77.30;;;;;;5027621;28;20080;-58
2023/04/15 05:43:23;;;;;;;36.03;6.50;;;11.00;77.40;;;;;;5026434;28;20044;-55
2023/04/15 05:45:48;;;;;;;27.38;5.75;;;11.00;77.60;;;;;;5038793;28;20099;-56
2023/04/15 05:48:14;;;;;;;34.08;7.10;;;11.00;77.50;;;;;;5038123;28;20044;-56
2023/04/15 05:50:41;;;;;;;26.17;6.40;;;11.00;77.50;;;;;;5044557;28;20045;-56
2023/04/15 05:53:07;;;;;;;40.63;6.78;;;11.00;77.40;;;;;;5042026;28;20511;-56
2023/04/15 05:55:32;;;;;;;34.05;7.13;;;11.10;77.40;;;;;;5045962;28;20029;-56
2023/04/15 05:57:58;;;;;;;34.72;6.07;;;11.00;77.40;;;;;;5046512;28;20108;-56
2023/04/15 06:00:23;;;;;;;27.92;6.35;;;11.10;77.40;;;;;;5047253;28;20044;-56
2023/04/15 06:02:49;;;;;;;24.05;6.07;;;11.10;77.40;;;;;;5046448;28;20095;-56
2023/04/15 06:05:15;;;;;;;28.70;5.82;;;11.10;77.30;;;;;;5045718;28;20049;-56
2023/04/15 06:07:42;;;;;;;21.50;5.90;;;11.10;77.30;;;;;;5028931;28;20031;-56
2023/04/15 06:10:08;;;;;;;28.08;6.65;;;11.10;77.20;;;;;;5047139;28;20034;-56
2023/04/15 06:12:34;;;;;;;29.20;6.40;;;11.20;77.30;;;;;;5046827;28;20052;-56
2023/04/15 06:14:59;;;;;;;27.55;6.47;;;11.10;77.20;;;;;;5045544;28;20030;-56
2023/04/15 06:17:25;;;;;;;27.05;6.38;;;11.10;77.30;;;;;;5045605;28;20442;-55
2023/04/15 06:19:54;;;;;;;26.08;6.47;;;11.10;77.30;;;;;;5046773;28;20022;-56
2023/04/15 06:22:21;;;;;;;31.00;6.53;;;11.20;77.70;;;;;;5045413;28;20445;-56
2023/04/15 06:24:48;;;;;;;23.30;5.85;;;11.20;78.10;;;;;;5046647;28;20202;-56
2023/04/15 06:27:13;;;;;;;30.08;6.68;;;11.20;77.90;;;;;;5044300;28;20038;-56
2023/04/15 06:29:39;;;;;;;25.70;5.40;;;11.20;77.90;;;;;;5045337;28;20033;-56
2023/04/15 06:32:05;;;;;;;21.20;6.22;;;11.20;77.90;;;;;;5044556;28;20080;-56
2023/04/15 06:34:30;;;;;;;27.77;5.38;;;11.20;77.80;;;;;;5046517;28;20033;-56
2023/04/15 06:36:56;;;;;;;21.92;5.07;;;11.30;77.80;;;;;;5045110;28;20085;-56
2023/04/15 06:39:21;;;;;;;24.90;5.53;;;11.30;77.70;;;;;;5045015;28;20017;-56
2023/04/15 06:41:47;;;;;;;21.60;5.15;;;11.30;77.70;;;;;;5046471;28;20037;-56
2023/04/15 06:44:13;;;;;;;37.03;4.97;;;11.40;77.80;;;;;;5045151;28;20085;-56
2023/04/15 06:46:38;;;;;;;16.83;5.28;;;11.30;77.80;;;;;;5044983;28;20037;-56
2023/04/15 06:49:04;;;;;;;18.30;4.40;;;11.30;77.70;;;;;;5045059;28;20029;-56
2023/04/15 06:51:30;;;;;;;19.73;4.72;;;11.30;77.60;;;;;;5045940;28;20065;-56
2023/04/15 06:53:55;;;;;;;19.52;4.90;;;11.40;78.10;;;;;;5044661;28;20040;-56
2023/04/15 06:56:22;;;;;;;22.98;4.75;;;11.40;77.40;;;;;;5028317;28;20022;-56
2023/04/15 06:58:47;;;;;;;18.15;4.45;;;11.40;77.30;;;;;;5046013;28;20021;-56
2023/04/15 07:01:13;;;;;;;8.85;4.43;;;11.40;77.20;;;;;;5044681;28;20035;-56
2023/04/15 07:03:38;;;;;;;28.90;5.30;;;11.50;77.20;;;;;;5044472;28;20049;-56
2023/04/15 07:06:05;;;;;;;19.45;5.22;;;11.50;77.20;;;;;;5046061;28;20025;-56
2023/04/15 07:08:32;;;;;;;18.38;4.53;;;11.50;77.20;;;;;;5045900;28;20524;-56
2023/04/15 07:10:59;;;;;;;15.68;4.18;;;11.50;77.10;;;;;;5028083;28;20041;-56
2023/04/15 07:13:25;;;;;;;21.35;4.55;;;11.50;77.10;;;;;;5044358;28;20045;-56
2023/04/15 07:15:50;;;;;;;9.57;4.03;;;11.50;77.10;;;;;;5044365;28;20052;-56
2023/04/15 07:18:16;;;;;;;13.52;3.97;;;11.60;77.20;;;;;;5044410;28;20025;-56
2023/04/15 07:20:42;;;;;;;17.52;4.00;;;11.60;77.10;;;;;;5044338;28;20033;-56
2023/04/15 07:23:08;;;;;;;12.50;3.88;;;11.60;77.70;;;;;;5044260;28;20033;-56
2023/04/15 07:25:33;;;;;;;16.92;4.03;;;11.60;76.90;;;;;;5044674;28;20029;-56
2023/04/15 07:27:59;;;;;;;14.95;4.07;;;11.70;77.00;;;;;;5045780;28;20021;-56
2023/04/15 07:30:24;;;;;;;15.93;3.65;;;11.70;77.60;;;;;;5044275;28;20460;-56
2023/04/15 07:32:50;;;;;;;16.58;4.28;;;11.70;76.80;;;;;;5044220;28;20022;-56
2023/04/15 07:35:16;;;;;;;16.25;4.00;;;11.70;76.90;;;;;;5045215;28;20083;-56
2023/04/15 07:37:42;;;;;;;9.50;3.45;;;11.70;76.90;;;;;;5045556;28;20026;-56
2023/04/15 07:40:08;;;;;;;13.80;3.75;;;11.80;76.90;;;;;;5044006;28;20417;-56
2023/04/15 07:42:34;;;;;;;14.57;3.53;;;11.80;76.90;;;;;;5043849;28;20021;-55
2023/04/15 07:45:00;;;;;;;11.57;3.22;;;11.80;76.90;;;;;;5045013;28;20125;-56
2023/04/15 07:47:26;;;;;;;12.55;3.75;;;11.80;76.90;;;;;;5044450;28;20029;-55
2023/04/15 07:49:51;;;;;;;11.38;3.25;;;11.80;76.80;;;;;;5044013;28;20029;-56
2023/04/15 07:52:17;;;;;;;13.27;4.05;;;11.80;76.80;;;;;;5044229;28;20045;-56
2023/04/15 07:54:43;;;;;;;14.10;3.30;;;11.90;76.80;;;;;;5043403;28;20104;-56
2023/04/15 07:57:09;;;;;;;12.65;3.50;;;11.90;76.70;;;;;;5060038;28;20035;-56
2023/04/15 07:59:35;;;;;;;9.48;2.90;;;11.90;76.70;;;;;;5062344;28;20037;-56
2023/04/15 08:02:01;;;;;;;11.85;3.33;;;11.90;76.80;;;;;;5047196;28;20025;-55
2023/04/15 08:04:27;;;;;;;13.85;3.80;;;11.90;76.80;;;;;;5047063;28;20036;-56
2023/04/15 08:06:53;;;;;;;13.55;4.00;;;12.00;76.80;;;;;;5046793;28;20063;-55
2023/04/15 08:09:19;;;;;;;13.32;3.40;;;12.00;77.00;;;;;;5063235;28;20159;-56
2023/04/15 08:11:47;;;;;;;14.50;3.25;;;12.00;77.00;;;;;;5046500;28;20128;-56
2023/04/15 08:14:12;;;;;;;13.40;3.35;;;12.10;77.20;;;;;;5062874;28;20029;-56
2023/04/15 08:16:38;;;;;;;14.68;3.47;;;12.10;77.20;;;;;;5042071;28;20114;-56
2023/04/15 08:19:04;;;;;;;24.20;4.22;;;12.10;77.30;;;;;;5046550;28;20029;-56
2023/04/15 08:21:30;;;;;;;26.48;4.65;;;12.20;77.40;;;;;;5047436;28;20021;-56
2023/04/15 08:23:55;;;;;;;29.88;5.90;;;12.20;77.50;;;;;;5043312;28;20049;-56
2023/04/15 08:26:21;;;;;;;54.72;7.10;;;12.20;78.00;;;;;;5039621;28;20038;-56
2023/04/15 08:28:46;;;;;;;46.17;6.45;;;12.30;78.90;;;;;;5043699;28;20141;-56
2023/04/15 08:31:13;;;;;;;25.90;5.03;;;12.30;77.90;;;;;;5042238;28;20481;-55
2023/04/15 08:33:39;;;;;;;22.02;4.97;;;12.30;78.10;;;;;;5025712;28;20044;-56
2023/04/15 08:36:05;;;;;;;34.90;5.47;;;12.40;78.00;;;;;;5049055;28;20037;-56
2023/04/15 08:38:30;;;;;;;66.95;6.85;;;12.40;78.00;;;;;;5042860;28;20025;-56
2023/04/15 08:40:56;;;;;;;53.72;7.15;;;12.50;78.30;;;;;;5033553;28;20460;-56
2023/04/15 08:43:25;;;;;;;106.78;13.65;;;12.50;78.50;;;;;;5009905;28;20044;-58
2023/04/15 08:45:51;;;;;;;61.83;8.50;;;12.60;78.60;;;;;;5020408;28;20112;-58
2023/04/15 08:48:17;;;;;;;92.45;12.02;;;12.50;78.60;;;;;;5033479;28;20103;-58
2023/04/15 08:50:42;;;;;;;102.70;12.75;;;12.60;79.10;;;;;;5036645;28;20041;-58
2023/04/15 08:53:09;;;;;;;96.20;11.73;;;12.60;79.80;;;;;;5033492;28;20358;-58
2023/04/15 08:55:35;;;;;;;139.07;16.63;;;12.70;80.00;;;;;;5049772;28;20028;-58
2023/04/15 08:58:01;;;;;;;121.32;16.05;;;12.70;80.30;;;;;;5021862;28;20160;-57
2023/04/15 09:00:28;;;;;;;121.90;14.75;;;12.70;80.50;;;;;;5043211;28;20166;-58
2023/04/15 09:02:57;;;;;;;131.68;18.08;;;12.80;80.50;;;;;;5061740;28;20045;-58
2023/04/15 09:05:23;;;;;;;152.40;20.45;;;12.80;80.40;;;;;;5041569;28;20037;-58
2023/04/15 09:07:50;;;;;;;155.20;18.88;;;12.90;80.50;;;;;;5037424;28;20625;-58
2023/04/15 09:10:16;;;;;;;198.38;21.52;;;12.90;80.40;;;;;;5044075;28;20041;-58
2023/04/15 09:12:41;;;;;;;163.75;19.25;;;13.10;80.50;;;;;;5032285;28;20090;-57
2023/04/15 09:15:07;;;;;;;143.55;17.17;;;13.10;81.00;;;;;;5040086;28;20038;-58
2023/04/15 09:17:33;;;;;;;148.70;18.63;;;13.20;80.20;;;;;;5043142;28;20092;-59
2023/04/15 09:20:19;;;;;;;156.07;18.05;;;13.30;80.00;;;;;;5037046;28;20053;-58
2023/04/15 09:22:45;;;;;;;160.30;19.00;;;13.30;80.00;;;;;;5033426;28;20469;-58
2023/04/15 09:25:14;;;;;;;183.25;21.13;;;13.30;80.20;;;;;;5030310;28;20054;-59
2023/04/15 09:27:49;;;;;;;153.43;19.50;;;13.40;80.30;;;;;;5036407;28;20025;-59
2023/04/15 09:30:16;;;;;;;166.70;19.42;;;13.50;80.30;;;;;;5039150;28;20068;-58
2023/04/15 09:32:55;;;;;;;210.50;22.33;;;13.50;80.50;;;;;;5029215;28;20029;-58
2023/04/15 09:35:21;;;;;;;245.52;25.17;;;13.50;80.40;;;;;;5053634;28;20037;-58
2023/04/15 09:37:48;;;;;;;194.48;22.20;;;13.60;80.40;;;;;;5042141;28;20036;-58
2023/04/15 09:40:13;;;;;;;261.48;28.35;;;13.60;80.30;;;;;;5037341;28;20076;-58
2023/04/15 09:42:55;;;;;;;235.80;26.08;;;13.70;80.30;;;;;;5031203;28;20101;-59
2023/04/15 09:45:21;;;;;;;218.65;27.48;;;13.70;80.90;;;;;;5050604;28;20045;-59
2023/04/15 09:47:47;;;;;;;250.32;28.80;;;13.70;81.90;;;;;;5031205;28;20163;-59
2023/04/15 09:50:14;;;;;;;296.38;33.35;;;13.80;81.30;;;;;;5034486;28;20033;-59
2023/04/15 09:52:43;;;;;;;321.10;35.63;;;13.80;81.40;;;;;;5042427;28;20334;-59
2023/04/15 09:55:08;;;;;;;244.18;28.33;;;13.90;82.20;;;;;;5040231;28;20029;-59
2023/04/15 09:57:35;;;;;;;274.02;33.08;;;14.00;81.40;;;;;;5035774;28;20023;-59
2023/04/15 10:00:06;;;;;;;308.73;33.63;;;14.00;81.20;;;;;;5030272;28;20041;-59
2023/04/15 10:02:32;;;;;;;324.48;36.13;;;14.00;81.20;;;;;;5053527;28;20041;-59
2023/04/15 10:04:58;;;;;;;301.63;36.60;;;14.10;81.60;;;;;;5033998;28;20029;-59
2023/04/15 10:07:23;;;;;;;343.98;40.55;;;14.10;81.80;;;;;;5022179;28;20021;-58
2023/04/15 10:09:49;;;;;;;323.70;38.70;;;14.30;82.00;;;;;;5028372;28;20083;-59
2023/04/15 10:12:18;;;;;;;382.45;42.92;;;14.20;82.40;;;;;;5029300;28;20064;-59
2023/04/15 10:14:43;;;;;;;331.40;40.47;;;14.20;82.40;;;;;;5030952;28;20116;-59
2023/04/15 10:17:12;;;;;;;579.25;64.28;;;14.20;82.30;;;;;;5037396;28;20053;-59
2023/04/15 10:19:38;;;;;;;375.77;43.40;;;14.20;82.50;;;;;;5052232;28;20037;-59
2023/04/15 10:22:03;;;;;;;342.88;40.53;;;14.30;82.70;;;;;;5015280;28;20030;-59
2023/04/15 10:24:32;;;;;;;372.10;43.30;;;14.40;82.80;;;;;;5034962;28;20021;-59
2023/04/15 10:27:03;;;;;;;380.85;45.85;;;14.40;82.80;;;;;;5040697;28;20041;-56
2023/04/15 10:29:29;;;;;;;362.55;42.00;;;14.40;82.40;;;;;;5041376;28;20053;-56
2023/04/15 10:31:58;;;;;;;344.02;40.15;;;14.40;81.80;;;;;;5035290;28;20033;-56
2023/04/15 10:34:24;;;;;;;439.02;53.83;;;14.40;81.50;;;;;;5037128;28;20170;-56
2023/04/15 10:36:50;;;;;;;363.05;47.40;;;14.40;81.80;;;;;;5032105;28;20171;-56
2023/04/15 10:39:36;;;;;;;386.90;48.08;;;14.40;82.40;;;;;;5033093;28;20029;-56
2023/04/15 10:42:08;;;;;;;385.38;47.42;;;14.50;82.70;;;;;;5034428;28;20077;-56
2023/04/15 10:44:36;;;;;;;359.63;45.30;;;14.50;82.90;;;;;;5045307;28;20042;-56
2023/04/15 10:47:05;;;;;;;370.60;50.35;;;14.50;82.60;;;;;;5035277;28;20029;-56
2023/04/15 10:49:31;;;;;;;371.23;43.25;;;14.60;82.50;;;;;;5037146;28;20030;-56
2023/04/15 10:51:57;;;;;;;301.98;37.17;;;14.60;82.10;;;;;;5041669;28;20048;-56
2023/04/15 10:54:26;;;;;;;312.75;39.03;;;14.60;81.60;;;;;;5024989;28;20068;-56
2023/04/15 10:57:01;;;;;;;359.50;45.53;;;14.70;81.70;;;;;;5036158;28;20014;-56
2023/04/15 10:59:37;;;;;;;349.83;42.50;;;14.70;81.70;;;;;;5027079;28;20124;-56
2023/04/15 11:02:04;;;;;;;356.83;43.80;;;14.70;81.80;;;;;;5033291;28;20188;-57
2023/04/15 11:04:52;;;;;;;317.25;40.83;;;14.70;81.80;;;;;;5033823;28;20108;-56
2023/04/15 11:07:40;;;;;;;286.10;39.03;;;14.70;81.60;;;;;;5041251;28;20076;-56
2023/04/15 11:10:19;;;;;;;283.70;35.22;;;14.80;81.40;;;;;;5042002;28;20025;-57
2023/04/15 11:12:45;;;;;;;300.80;36.92;;;14.80;81.30;;;;;;5040187;28;20025;-56
2023/04/15 11:15:33;;;;;;;280.58;36.33;;;14.80;81.60;;;;;;5042581;28;20053;-56
2023/04/15 11:18:06;;;;;;;319.85;36.50;;;14.90;81.40;;;;;;5040485;28;20104;-56
2023/04/15 11:20:31;;;;;;;317.55;36.90;;;14.90;81.20;;;;;;5040605;28;20029;-56
2023/04/15 11:22:57;;;;;;;283.85;35.80;;;14.90;81.70;;;;;;5025672;28;20021;-56
2023/04/15 11:25:36;;;;;;;283.77;34.28;;;15.00;81.70;;;;;;5041588;28;20025;-56
2023/04/15 11:28:02;;;;;;;319.67;35.83;;;15.00;81.40;;;;;;5037516;28;20044;-57
2023/04/15 11:30:29;;;;;;;252.85;33.35;;;15.00;81.60;;;;;;5038055;28;20149;-56
2023/04/15 11:32:57;;;;;;;286.30;33.45;;;15.00;81.70;;;;;;5042254;28;20048;-57
2023/04/15 11:35:23;;;;;;;273.80;33.22;;;15.10;81.60;;;;;;5041606;28;20102;-56
2023/04/15 11:37:49;;;;;;;239.13;31.17;;;15.10;81.60;;;;;;5041070;28;20394;-56
2023/04/15 11:40:16;;;;;;;258.35;28.67;;;15.10;81.50;;;;;;5042787;28;20013;-56
2023/04/15 11:42:43;;;;;;;219.98;28.08;;;15.10;81.20;;;;;;5040157;28;20385;-56
2023/04/15 11:45:14;;;;;;;239.82;28.92;;;15.10;81.20;;;;;;5023158;28;20030;-56
2023/04/15 11:47:41;;;;;;;253.10;31.48;;;15.10;81.90;;;;;;5039898;28;20038;-56
2023/04/15 11:50:20;;;;;;;245.10;28.33;;;15.10;81.90;;;;;;5041683;28;20098;-56
2023/04/15 11:53:03;;;;;;;223.63;26.08;;;15.10;81.30;;;;;;5041297;28;20265;-58
2023/04/15 11:55:28;;;;;;;215.05;27.52;;;15.20;81.10;;;;;;5057585;28;20132;-59
2023/04/15 11:58:11;;;;;;;225.85;27.80;;;15.20;81.50;;;;;;5041720;28;20374;-59
2023/04/15 12:00:38;;;;;;;240.68;27.25;;;15.20;80.90;;;;;;5039629;28;20049;-59
2023/04/15 12:03:20;;;;;;;237.70;28.08;;;15.20;80.90;;;;;;5042037;28;20493;-58
2023/04/15 12:06:05;;;;;;;220.32;26.83;;;15.30;80.80;;;;;;5041444;28;20112;-59
2023/04/15 12:08:52;;;;;;;224.38;27.52;;;15.30;80.80;;;;;;5043249;28;20036;-59
2023/04/15 12:11:36;;;;;;;204.30;24.85;;;15.30;81.00;;;;;;5038868;28;20029;-59
2023/04/15 12:14:03;;;;;;;198.43;23.13;;;15.30;80.80;;;;;;5040966;28;20041;-59
2023/04/15 12:16:28;;;;;;;247.35;27.52;;;15.30;80.50;;;;;;5042357;28;20064;-59
2023/04/15 12:18:58;;;;;;;208.45;26.02;;;15.50;80.80;;;;;;5040869;28;20033;-59
2023/04/15 12:21:25;;;;;;;212.93;25.88;;;15.40;80.70;;;;;;5040222;28;20069;-58
2023/04/15 12:23:52;;;;;;;191.68;24.35;;;15.40;80.60;;;;;;5025221;28;20037;-59
2023/04/15 12:26:24;;;;;;;194.10;25.50;;;15.50;80.70;;;;;;5040889;28;20409;-59
2023/04/15 12:28:54;;;;;;;213.13;24.90;;;15.50;80.20;;;;;;5040363;28;20067;-59